Aérodrome :
LOGIN :

S'inscrire | Disclaimer

   EN    FR    IT 

 










Légende :    VFR   VFR Marginal   IFR   IFR Intensif   IFR Très Intensif
Visi : 
Plafond : 
>= 8 km
>= 3000ft
5 à 8 km
1000 à 3000 ft
1500m à 5 km
500 à 1000 ft
800 à 1500m
200 à 500 ft
< 800m
< 200 ft
Symboles :   Orages  Brouillard  Fortes neiges  Fortes précipitations  Vent > 20 kt
SIGMETs :   Divers  Orages  Givrage  Turbulence  Onde Orograph.  Cendres Volcan.






- Altitude de l'aérodrome : 1708 ft
- Code IATA : SJJ


LQSA - Sarajevo

DERNIER METAR :
  • 272000Z VRB02KT 0100 R11/0175N FG VV001 03/03 Q1018

METARs EXPIRÉS :
  • 271900Z 13003KT 0100 R11/0175N FG VV001 02/02 Q1018
  • 271800Z VRB01KT 0100 R11/0175N FG BKN003 OVC050 02/02 Q1018

TAF TAF LQSA
Valide du 27 à 18h jusqu'au 28 à 18h UTC


271700Z 2718/2818 VRB02KT 0100 FG SCT040 TX09/2815Z TNM01/2803Z
TEMPO 2721/2808 FZFG BKN001
BECMG 2807/2811 2000 BR
PROB30 2810/2818 18015KT 9999 NSW



MET'MAP, la Météo Aéronautique d'un coup d'oeil ! - Copyright ORBIFLY Décembre 2007 - Disclaimer

ORBIFLY MET'MAP TEAM :

Programmation & Développement : Alexandra Zaïnal
Sur une idée originale de : Baudouin d'Aumeries
Assistance à la programmation : Marc-Olivier Méhu
Soutien technique & logistique : Manuel Goepfert

Contact : metmap@orbifly.com




SOURCES & CREDITS :

   NOAA